Time;durP1;ratioP1;P1;durP2;ratioP2;P2;SDS_P1;SDS_P2;PMS_P1;PMS_P2;Temp;Humidity;BMP_temperature;BMP_pressure;BME280_temperature;BME280_humidity;BME280_pressure;Samples;Min_cycle;Max_cycle;Signal;HPM_P1;HPM_P2
2020/12/24 00:01:43;;;;;;;2.70;0.90;;;;;;;12.22;75.88;98673.50;6190131;23;20035;-89
2020/12/24 00:04:25;;;;;;;3.58;1.00;;;;;;;12.09;75.09;98684.25;6219850;23;20027;-88
2020/12/24 00:07:09;;;;;;;2.05;0.82;;;;;;;12.04;76.09;98674.97;6191914;23;20455;-90
2020/12/24 00:09:40;;;;;;;3.20;1.00;;;;;;;11.95;75.77;98685.31;6190206;23;20021;-85
2020/12/24 00:12:28;;;;;;;3.85;1.10;;;;;;;11.91;76.47;98685.66;6191250;23;20048;-86
2020/12/24 00:15:19;;;;;;;3.60;1.23;;;;;;;11.82;76.05;98688.06;6192509;23;20023;-88
2020/12/24 00:18:27;;;;;;;2.80;1.02;;;;;;;11.79;76.33;98680.44;6145273;23;20021;-88
2020/12/24 00:21:00;;;;;;;6.80;1.48;;;;;;;11.78;76.15;98677.91;6218952;23;20021;-90
2020/12/24 00:23:27;;;;;;;6.85;1.00;;;;;;;11.76;76.49;98680.66;6216949;23;20478;-89
2020/12/24 00:25:54;;;;;;;2.28;0.85;;;;;;;11.75;76.83;98680.78;6218274;23;20024;-88
2020/12/24 00:32:56;;;;;;;2.83;1.02;;;;;;;11.65;75.96;98675.41;6215876;23;20512;-88
2020/12/24 00:41:43;;;;;;;4.90;1.00;;;;;;;11.55;76.23;98656.84;6214798;23;20543;-88
2020/12/24 00:48:15;;;;;;;6.53;0.90;;;;;;;11.50;76.20;98657.22;6098922;23;20021;-89
2020/12/24 00:50:51;;;;;;;4.10;1.20;;;;;;;11.47;76.92;98650.38;6170116;23;20024;-90
2020/12/24 00:53:38;;;;;;;3.55;0.82;;;;;;;11.43;76.57;98638.41;6190996;23;20080;-91
2020/12/24 00:56:39;;;;;;;5.03;0.90;;;;;;;11.44;77.02;98641.88;6192786;23;20104;-91
2020/12/24 00:59:22;;;;;;;7.18;1.20;;;;;;;11.45;76.80;98635.66;6193199;23;20063;-90
2020/12/24 01:02:57;;;;;;;4.47;1.23;;;;;;;11.38;75.69;98629.19;6217927;23;20025;-91
2020/12/24 01:05:34;;;;;;;3.88;1.30;;;;;;;11.40;76.21;98633.38;6173962;23;20047;-89
2020/12/24 01:08:18;;;;;;;2.20;1.13;;;;;;;11.36;76.02;98641.66;6193789;23;20021;-90
2020/12/24 01:11:09;;;;;;;;;;;;;;;;;;;;;
2020/12/24 01:13:45;;;;;;;5.93;1.45;;;;;;;11.29;76.51;98639.47;6162665;23;20020;-88
2020/12/24 01:16:27;;;;;;;4.82;1.58;;;;;;;11.26;76.73;98652.06;6191715;23;20059;-91
2020/12/24 01:19:33;;;;;;;2.78;1.30;;;;;;;11.19;75.93;98643.81;6191053;23;20044;-92
2020/12/24 01:22:17;;;;;;;5.78;1.40;;;;;;;11.20;76.17;98648.09;6100110;23;20339;-91
2020/12/24 01:24:54;;;;;;;2.40;1.10;;;;;;;11.12;75.58;98646.06;6191147;23;20095;-88
2020/12/24 01:27:41;;;;;;;1.77;0.93;;;;;;;11.10;75.80;98647.16;6218636;23;20067;-90
2020/12/24 01:30:37;;;;;;;5.30;1.40;;;;;;;11.07;76.24;98638.50;6182055;23;20130;-91
2020/12/24 01:33:06;;;;;;;3.92;1.00;;;;;;;11.04;76.35;98651.94;6217335;23;20031;-91
2020/12/24 01:39:22;;;;;;;1.50;0.90;;;;;;;10.97;76.12;98653.34;6206305;23;20027;-91
2020/12/24 01:41:50;;;;;;;2.97;1.00;;;;;;;10.96;76.68;98651.69;6191525;23;20469;-91
2020/12/24 01:44:34;;;;;;;1.42;0.90;;;;;;;10.91;76.42;98653.81;6192636;23;20348;-91
2020/12/24 01:47:03;;;;;;;3.33;0.85;;;;;;;10.91;76.98;98652.03;6190072;23;20020;-91
2020/12/24 01:49:34;;;;;;;4.40;1.00;;;;;;;10.89;76.80;98655.72;6191391;23;20024;-91
2020/12/24 01:55:27;;;;;;;2.03;0.70;;;;;;;10.85;76.40;98641.13;6216871;23;20017;-90
2020/12/24 01:58:19;;;;;;;2.13;0.77;;;;;;;10.77;75.41;98653.06;6216559;23;20017;-92
2020/12/24 02:01:13;;;;;;;1.63;0.80;;;;;;;10.77;76.23;98650.44;6217457;23;20046;-91
2020/12/24 02:03:42;;;;;;;1.57;0.90;;;;;;;10.74;76.32;98642.78;6146077;23;20031;-90
2020/12/24 02:06:15;;;;;;;1.33;0.80;;;;;;;10.69;75.68;98655.44;6191124;23;20028;-90
2020/12/24 02:08:55;;;;;;;1.67;0.70;;;;;;;10.66;75.95;98643.34;6177631;23;20024;-90
2020/12/24 02:12:00;;;;;;;2.42;1.02;;;;;;;10.57;74.78;98646.69;6190302;23;20029;-89
2020/12/24 02:14:32;;;;;;;1.52;0.98;;;;;;;10.57;75.84;98646.69;6209509;23;20347;-90
2020/12/24 02:17:08;;;;;;;2.42;0.90;;;;;;;10.52;75.75;98641.78;6193002;23;20024;-89
2020/12/24 02:19:45;;;;;;;1.83;1.00;;;;;;;10.45;75.06;98640.56;6217107;23;20344;-89
2020/12/24 02:22:53;;;;;;;1.50;1.17;;;;;;;10.37;75.01;98635.84;6192115;23;20029;-90
2020/12/24 02:26:12;;;;;;;2.65;1.17;;;;;;;10.33;74.76;98636.16;6078984;23;20027;-90
2020/12/24 02:28:48;;;;;;;2.03;1.13;;;;;;;10.33;76.29;98631.75;6216857;23;20027;-90
2020/12/24 02:31:20;;;;;;;3.05;1.17;;;;;;;10.30;76.36;98630.19;6191865;23;20506;-90
2020/12/24 02:33:55;;;;;;;3.40;1.33;;;;;;;10.24;76.03;98628.00;6216692;23;20025;-90
2020/12/24 02:36:23;;;;;;;1.92;1.23;;;;;;;10.23;76.61;98630.75;6216242;23;20017;-90
2020/12/24 02:39:03;;;;;;;3.53;1.60;;;;;;;10.18;76.20;98628.47;6190128;23;20021;-89
2020/12/24 02:41:56;;;;;;;;;;;;;;;10.17;75.03;98626.81;6103499;23;20026;-89
2020/12/24 02:44:53;;;;;;;5.38;1.42;;;;;;;10.16;76.24;98625.94;6123990;23;19921;-89
2020/12/24 02:47:19;;;;;;;3.15;1.38;;;;;;;10.14;76.67;98608.59;6100492;23;20017;-90
2020/12/24 02:49:59;;;;;;;3.13;1.52;;;;;;;10.09;76.44;98614.19;6124237;23;20022;-89
2020/12/24 02:52:32;;;;;;;4.63;1.58;;;;;;;10.07;76.92;98610.00;6099920;23;20600;-90
2020/12/24 02:55:10;;;;;;;3.97;1.80;;;;;;;10.03;76.83;98610.22;6125311;23;20349;-90
2020/12/24 02:57:39;;;;;;;5.85;1.60;;;;;;;10.01;76.81;98604.25;6125234;23;20025;-89
2020/12/24 03:00:48;;;;;;;5.72;1.70;;;;;;;9.99;77.12;98606.13;6101010;23;20131;-90
2020/12/24 03:03:20;;;;;;;5.45;1.80;;;;;;;9.98;77.07;98604.47;6014738;23;20059;-88
2020/12/24 03:06:01;;;;;;;6.37;1.67;;;;;;;9.96;77.28;98608.16;6034958;23;20027;-89
2020/12/24 03:09:08;;;;;;;3.08;1.40;;;;;;;9.91;76.88;98608.50;6012247;23;20276;-90
2020/12/24 03:11:54;;;;;;;3.92;1.50;;;;;;;9.92;77.32;98604.94;6003889;23;20043;-89
2020/12/24 03:14:24;;;;;;;4.45;1.85;;;;;;;9.97;78.09;98617.72;6099986;23;20048;-89
2020/12/24 03:16:52;;;;;;;4.38;1.60;;;;;;;9.98;78.02;98611.53;6190122;23;20043;-90
2020/12/24 03:19:28;;;;;;;4.50;1.30;;;;;;;10.00;78.00;98609.63;6191411;23;20071;-90
2020/12/24 03:22:00;;;;;;;9.02;1.75;;;;;;;10.01;77.67;98619.16;6190316;23;20099;-89
2020/12/24 03:24:33;;;;;;;5.32;2.03;;;;;;;10.02;77.34;98616.44;6215263;23;20447;-90
2020/12/24 03:26:59;;;;;;;6.10;2.25;;;;;;;10.03;77.62;98606.78;6189175;23;20027;-89
2020/12/24 03:29:27;;;;;;;11.25;2.42;;;;;;;10.00;77.47;98606.97;6216710;23;20325;-90
2020/12/24 03:31:54;;;;;;;6.25;2.47;;;;;;;10.00;77.39;98605.22;6216461;23;20051;-90
2020/12/24 03:34:25;;;;;;;8.77;2.60;;;;;;;10.00;77.70;98597.31;6191677;23;20355;-89
2020/12/24 03:36:57;;;;;;;4.07;1.63;;;;;;;10.00;77.53;98607.84;6216330;23;20017;-89
2020/12/24 03:39:37;;;;;;;7.57;2.08;;;;;;;9.98;76.99;98607.09;6189820;23;20023;-89
2020/12/24 03:42:03;;;;;;;4.15;1.60;;;;;;;10.02;77.74;98595.41;6215838;23;20027;-89
2020/12/24 03:44:32;;;;;;;7.82;1.83;;;;;;;10.03;77.50;98610.22;6216073;23;20020;-88
2020/12/24 03:46:59;;;;;;;7.60;1.50;;;;;;;10.03;77.58;98591.81;6189749;23;20024;-89
2020/12/24 03:49:31;;;;;;;5.55;1.70;;;;;;;10.04;77.68;98588.25;6190238;23;20055;-89
2020/12/24 03:52:00;;;;;;;7.38;2.03;;;;;;;10.03;76.99;98594.44;6189706;23;20024;-89
2020/12/24 03:54:34;;;;;;;10.38;1.60;;;;;;;10.07;77.28;98584.56;6215838;23;20362;-89
2020/12/24 03:57:00;;;;;;;9.07;1.80;;;;;;;10.09;77.40;98585.28;6215574;23;20029;-90
2020/12/24 03:59:27;;;;;;;6.88;1.42;;;;;;;10.07;77.17;98592.44;6215497;23;20025;-90
2020/12/24 04:01:53;;;;;;;8.68;1.83;;;;;;;10.06;76.13;98610.97;6189176;23;20023;-89
2020/12/24 04:04:20;;;;;;;7.22;1.73;;;;;;;10.07;76.80;98594.22;6215398;23;20067;-88
2020/12/24 04:06:46;;;;;;;4.82;1.63;;;;;;;10.07;77.19;98602.97;6189143;23;20115;-89
2020/12/24 04:09:15;;;;;;;10.40;2.25;;;;;;;10.08;77.28;98603.78;6189594;23;20013;-89
2020/12/24 04:11:41;;;;;;;3.40;2.30;;;;;;;10.08;77.13;98622.19;6190614;23;20024;-87
2020/12/24 04:14:08;;;;;;;3.10;2.20;;;;;;;10.07;76.49;98618.75;6216188;23;20482;-88
2020/12/24 04:16:34;;;;;;;1.60;1.50;;;;;;;10.06;75.58;98624.09;6191819;23;20043;-88
2020/12/24 04:19:01;;;;;;;1.52;1.30;;;;;;;10.00;75.27;98642.00;6192220;23;20383;-88
2020/12/24 04:21:27;;;;;;;1.50;1.40;;;;;;;9.93;74.38;98648.66;6191615;23;20095;-88
2020/12/24 04:23:53;;;;;;;1.70;1.38;;;;;;;9.84;74.38;98644.06;6191762;23;20043;-88
2020/12/24 04:26:23;;;;;;;1.50;1.40;;;;;;;9.72;74.48;98657.13;6191894;23;20031;-88
2020/12/24 04:28:49;;;;;;;1.60;1.40;;;;;;;9.63;74.66;98652.53;6217852;23;20031;-88
2020/12/24 04:31:15;;;;;;;2.47;1.67;;;;;;;9.57;74.38;98663.50;6191633;23;20348;-87
2020/12/24 04:33:42;;;;;;;1.48;1.38;;;;;;;9.47;74.34;98660.66;6191510;23;20021;-87
2020/12/24 04:36:12;;;;;;;5.95;1.65;;;;;;;9.39;74.45;98663.84;6191546;23;20024;-87
2020/12/24 04:38:38;;;;;;;1.90;1.70;;;;;;;9.32;74.71;98670.44;6191589;23;20023;-88
2020/12/24 04:41:04;;;;;;;1.67;1.58;;;;;;;9.23;74.34;98671.91;6217737;23;20028;-88
2020/12/24 04:43:31;;;;;;;1.83;1.73;;;;;;;9.16;74.48;98679.38;6191560;23;20355;-88
2020/12/24 04:45:59;;;;;;;2.70;1.80;;;;;;;9.09;75.11;98684.22;6217876;23;20359;-88
2020/12/24 04:48:25;;;;;;;1.60;1.50;;;;;;;9.04;75.21;98688.94;6218120;23;20032;-89
2020/12/24 04:50:53;;;;;;;1.27;1.17;;;;;;;8.96;75.01;98697.34;6191072;23;20020;-88
2020/12/24 04:53:20;;;;;;;1.40;1.30;;;;;;;8.91;74.95;98702.06;6191256;23;20024;-88
2020/12/24 04:55:46;;;;;;;1.27;1.17;;;;;;;8.85;74.80;98710.31;6191455;23;20059;-88
2020/12/24 04:58:12;;;;;;;1.33;1.25;;;;;;;8.78;74.96;98709.91;6191309;23;20021;-88
2020/12/24 05:00:39;;;;;;;2.10;1.70;;;;;;;8.72;75.27;98712.94;6191147;23;20035;-88
2020/12/24 05:03:05;;;;;;;2.10;1.90;;;;;;;8.67;74.99;98709.78;6190891;23;20024;-88
2020/12/24 05:05:32;;;;;;;1.70;1.60;;;;;;;8.60;74.59;98719.84;6217941;23;20025;-89
2020/12/24 05:08:07;;;;;;;1.58;1.48;;;;;;;8.50;74.09;98731.84;6191304;23;20328;-89
2020/12/24 05:10:36;;;;;;;1.40;1.30;;;;;;;8.46;74.59;98732.03;6190993;23;20027;-89
2020/12/24 05:13:29;;;;;;;0.93;0.90;;;;;;;8.31;73.11;98735.66;6190970;23;20028;-90
2020/12/24 05:15:55;;;;;;;0.53;0.53;;;;;;;8.28;74.02;98738.47;6212546;23;20023;-88
2020/12/24 05:18:22;;;;;;;0.90;0.80;;;;;;;8.20;74.44;98750.28;6190765;23;20062;-88
2020/12/24 05:20:49;;;;;;;0.68;0.68;;;;;;;8.11;74.57;98750.84;6217822;23;20031;-89
2020/12/24 05:23:17;;;;;;;3.13;0.63;;;;;;;8.02;74.59;98749.66;6217452;23;20024;-88
2020/12/24 05:25:45;;;;;;;0.55;0.55;;;;;;;7.95;74.42;98764.94;6190652;23;20029;-88
2020/12/24 05:28:26;;;;;;;0.70;0.63;;;;;;;7.85;74.37;98750.69;6216895;23;20027;-89
2020/12/24 05:30:53;;;;;;;0.50;0.50;;;;;;;7.80;74.77;98763.25;6190516;23;20024;-88
2020/12/24 05:33:51;;;;;;;0.57;0.47;;;;;;;7.69;74.37;98770.00;6216951;23;20024;-88
2020/12/24 05:36:19;;;;;;;0.70;0.70;;;;;;;7.67;74.91;98771.03;6191011;23;20347;-87
2020/12/24 05:38:47;;;;;;;0.40;0.40;;;;;;;7.61;74.82;98766.16;6190823;23;20017;-87
2020/12/24 05:41:33;;;;;;;0.35;0.35;;;;;;;7.52;74.66;98775.44;6216737;23;20391;-88
2020/12/24 05:44:06;;;;;;;0.60;0.50;;;;;;;7.48;74.34;98773.94;6216726;23;20017;-88
2020/12/24 05:46:39;;;;;;;0.70;0.70;;;;;;;7.43;74.33;98788.13;6191076;23;20021;-87
2020/12/24 05:49:13;;;;;;;0.50;0.50;;;;;;;7.38;74.83;98784.94;6190483;23;20043;-87
2020/12/24 05:51:59;;;;;;;0.63;0.63;;;;;;;7.34;75.17;98796.53;6217766;23;20027;-87
2020/12/24 05:54:27;;;;;;;1.38;0.70;;;;;;;7.32;75.09;98797.56;6190281;23;20024;-87
2020/12/24 05:56:54;;;;;;;0.50;0.50;;;;;;;7.26;74.80;98799.59;6190868;23;20020;-87
2020/12/24 05:59:25;;;;;;;0.70;0.70;;;;;;;7.24;75.14;98796.22;6216942;23;20016;-87
2020/12/24 06:02:06;;;;;;;0.80;0.80;;;;;;;7.16;74.94;98804.53;6216576;23;20025;-87
2020/12/24 06:04:45;;;;;;;1.25;1.15;;;;;;;7.11;74.41;98816.19;6217362;23;20028;-88
2020/12/24 06:07:14;;;;;;;0.70;0.70;;;;;;;7.09;75.36;98813.66;6190104;23;20028;-88
2020/12/24 06:09:43;;;;;;;1.15;0.98;;;;;;;7.06;74.75;98829.53;6189965;23;20031;-88
2020/12/24 06:12:23;;;;;;;1.27;1.17;;;;;;;6.99;74.87;98820.38;6216726;23;20021;-88
2020/12/24 06:14:51;;;;;;;1.27;0.88;;;;;;;6.99;75.25;98825.59;6190502;23;20024;-88
2020/12/24 06:17:18;;;;;;;1.05;0.88;;;;;;;6.97;74.87;98830.06;6190102;23;20035;-88
2020/12/24 06:19:46;;;;;;;0.82;0.82;;;;;;;6.94;75.00;98833.72;6190517;23;20111;-88
2020/12/24 06:22:16;;;;;;;0.60;0.60;;;;;;;6.89;75.40;98835.75;6216580;23;20044;-88
2020/12/24 06:24:45;;;;;;;0.70;0.70;;;;;;;6.86;75.67;98838.53;6189878;23;20032;-88
2020/12/24 06:27:26;;;;;;;1.30;0.73;;;;;;;6.83;75.60;98838.69;6191173;23;20025;-88
2020/12/24 06:30:00;;;;;;;1.00;0.88;;;;;;;6.84;75.80;98849.06;6189878;23;20024;-88
2020/12/24 06:32:28;;;;;;;1.05;0.85;;;;;;;6.86;76.20;98844.63;6190276;23;20020;-88
2020/12/24 06:34:54;;;;;;;1.88;1.00;;;;;;;6.87;76.52;98848.06;6216644;23;20027;-87
2020/12/24 06:37:20;;;;;;;0.90;0.90;;;;;;;6.89;76.93;98860.13;6190230;23;20028;-87
2020/12/24 06:39:51;;;;;;;1.20;1.10;;;;;;;6.90;76.80;98860.97;6216202;23;20028;-87
2020/12/24 06:42:36;;;;;;;1.30;1.20;;;;;;;6.90;76.42;98861.84;6190185;23;20024;-88
2020/12/24 06:45:08;;;;;;;1.40;1.30;;;;;;;6.97;76.44;98864.09;6190415;23;20024;-88
2020/12/24 06:47:35;;;;;;;3.07;2.77;;;;;;;7.00;76.73;98867.38;6190286;23;20024;-92
2020/12/24 06:50:34;;;;;;;5.28;4.10;;;;;;;7.00;76.20;98874.38;6199588;23;20274;-86
2020/12/24 06:53:26;;;;;;;4.97;4.55;;;;;;;7.03;76.07;98875.03;6248560;23;20350;-84
2020/12/24 06:59:23;;;;;;;1.50;1.40;;;;;;;7.12;76.21;98904.25;6247572;23;20454;-85
2020/12/24 07:02:03;;;;;;;1.33;1.15;;;;;;;7.08;75.69;98898.34;6221265;23;20035;-86
2020/12/24 07:04:36;;;;;;;1.40;1.10;;;;;;;7.09;75.84;98910.50;6217067;23;20026;-86
2020/12/24 07:07:02;;;;;;;1.42;1.15;;;;;;;7.13;76.31;98919.88;6221018;23;20020;-86
2020/12/24 07:09:32;;;;;;;1.05;1.05;;;;;;;7.11;76.28;98924.31;6247735;23;20024;-85
2020/12/24 07:11:59;;;;;;;1.38;1.27;;;;;;;7.13;76.59;98921.63;6221133;23;20014;-86
2020/12/24 07:14:29;;;;;;;1.58;1.17;;;;;;;7.12;76.65;98920.81;6221294;23;20020;-84
2020/12/24 07:17:16;;;;;;;3.53;1.80;;;;;;;7.12;76.59;98918.19;6221473;23;20058;-86
2020/12/24 07:19:43;;;;;;;3.75;1.33;;;;;;;7.14;76.36;98923.34;6205405;23;20031;-86
2020/12/24 07:22:13;;;;;;;1.38;1.27;;;;;;;7.12;76.22;98936.50;6220642;23;20098;-85
2020/12/24 07:24:40;;;;;;;1.27;1.10;;;;;;;7.12;76.24;98933.03;6220980;23;20024;-86
2020/12/24 07:27:06;;;;;;;1.50;1.40;;;;;;;7.14;76.25;98936.44;6221198;23;20094;-86
2020/12/24 07:29:34;;;;;;;3.72;1.20;;;;;;;7.12;76.22;98943.50;6246899;23;20016;-87
2020/12/24 07:32:06;;;;;;;2.10;1.63;;;;;;;7.12;76.19;98944.34;6220617;23;20080;-86
2020/12/24 07:34:36;;;;;;;1.33;1.20;;;;;;;7.12;76.44;98940.88;6220760;23;20067;-87
2020/12/24 07:37:04;;;;;;;1.73;1.45;;;;;;;7.13;76.20;98940.81;6220943;23;20031;-84
2020/12/24 07:39:31;;;;;;;1.80;1.70;;;;;;;7.13;76.50;98951.28;6221684;23;20074;-86
2020/12/24 07:41:57;;;;;;;2.65;1.75;;;;;;;7.14;76.29;98949.50;6220515;23;20031;-86
2020/12/24 07:44:23;;;;;;;2.00;1.80;;;;;;;7.14;76.34;98952.13;6220830;23;20051;-84
2020/12/24 07:46:59;;;;;;;1.67;1.58;;;;;;;7.14;76.06;98952.94;6247423;23;20028;-84
2020/12/24 07:49:25;;;;;;;1.60;1.50;;;;;;;7.15;76.45;98954.63;6220823;23;20022;-87
2020/12/24 07:51:58;;;;;;;1.83;1.50;;;;;;;7.15;76.32;98962.47;6246062;23;20028;-85
2020/12/24 07:54:26;;;;;;;1.88;1.63;;;;;;;7.19;76.35;98968.41;6220084;23;20020;-84
2020/12/24 07:56:53;;;;;;;2.10;1.90;;;;;;;7.20;76.54;98974.47;6247523;23;20351;-85
2020/12/24 07:59:20;;;;;;;2.63;1.98;;;;;;;7.22;76.61;98976.06;6248012;23;20056;-86
2020/12/24 08:01:46;;;;;;;2.53;2.15;;;;;;;7.23;76.50;98976.94;6247130;23;20024;-86
2020/12/24 08:04:15;;;;;;;3.42;2.45;;;;;;;7.24;76.41;98983.84;6222006;23;20020;-84
2020/12/24 08:06:42;;;;;;;3.03;2.72;;;;;;;7.26;76.44;98987.25;6247904;23;20027;-84
2020/12/24 08:09:18;;;;;;;2.90;2.25;;;;;;;7.25;75.90;98998.66;6221696;23;20024;-84
2020/12/24 08:11:58;;;;;;;2.22;2.03;;;;;;;7.24;75.52;99003.03;6220039;23;20027;-86
2020/12/24 08:14:28;;;;;;;2.35;1.75;;;;;;;7.28;75.84;99019.41;6220787;23;20374;-86
2020/12/24 08:17:24;;;;;;;3.00;1.92;;;;;;;7.24;75.40;99010.03;6220314;23;20023;-86
2020/12/24 08:20:07;;;;;;;2.22;1.70;;;;;;;7.24;75.33;99013.50;6192635;23;20024;-84
2020/12/24 08:22:49;;;;;;;2.53;1.98;;;;;;;7.23;75.21;99024.03;6246635;23;20028;-86
2020/12/24 08:25:16;;;;;;;2.40;1.60;;;;;;;7.25;75.82;99030.06;6220902;23;20028;-84
2020/12/24 08:27:45;;;;;;;2.95;1.63;;;;;;;7.22;75.92;99027.59;6220668;23;20031;-84
2020/12/24 08:30:13;;;;;;;1.98;1.48;;;;;;;7.21;75.70;99028.53;6247236;23;20024;-85
2020/12/24 08:32:39;;;;;;;1.20;1.10;;;;;;;7.21;76.07;99034.59;6246496;23;20024;-85
2020/12/24 08:35:13;;;;;;;1.73;1.13;;;;;;;7.18;75.49;99034.78;6220373;23;20020;-85
2020/12/24 08:37:40;;;;;;;1.73;1.27;;;;;;;7.20;75.88;99043.38;6219934;23;20008;-85
2020/12/24 08:40:25;;;;;;;3.10;1.20;;;;;;;7.19;75.52;99048.69;6246864;23;20031;-86
2020/12/24 08:42:58;;;;;;;1.10;1.00;;;;;;;7.23;75.93;99047.59;6220664;23;20043;-85
2020/12/24 08:45:24;;;;;;;2.38;1.13;;;;;;;7.22;75.88;99054.59;6246717;23;20031;-84
2020/12/24 08:47:53;;;;;;;1.38;1.10;;;;;;;7.23;75.81;99050.22;6221014;23;20024;-84
2020/12/24 08:50:33;;;;;;;1.33;1.23;;;;;;;7.21;75.01;99062.56;6219906;23;20020;-85
2020/12/24 08:53:01;;;;;;;1.55;1.25;;;;;;;7.24;75.40;99065.00;6221113;23;20020;-86
2020/12/24 08:55:28;;;;;;;9.55;1.90;;;;;;;7.23;75.47;99074.63;6196340;23;20046;-86
2020/12/24 08:57:55;;;;;;;4.00;1.58;;;;;;;7.22;75.70;99069.47;6247440;23;20023;-87
2020/12/24 09:00:24;;;;;;;1.08;0.98;;;;;;;7.22;75.71;99077.34;6220665;23;20074;-87
2020/12/24 09:02:50;;;;;;;1.55;1.02;;;;;;;7.21;75.90;99081.72;6220920;23;20035;-87
2020/12/24 09:05:25;;;;;;;2.45;1.10;;;;;;;7.20;75.62;99082.66;6249989;23;20427;-84
2020/12/24 09:07:54;;;;;;;1.48;1.17;;;;;;;7.23;75.87;99082.50;6248877;23;20016;-87
2020/12/24 09:10:30;;;;;;;2.25;1.05;;;;;;;7.22;75.73;99086.00;6250009;23;20098;-86
2020/12/24 09:12:58;;;;;;;1.33;0.93;;;;;;;7.26;76.03;99084.09;6221665;23;20091;-85
2020/12/24 09:15:26;;;;;;;2.65;1.10;;;;;;;7.28;75.63;99095.31;6222545;23;20028;-84
2020/12/24 09:17:54;;;;;;;1.35;1.10;;;;;;;7.29;75.95;99104.88;6248144;23;20016;-86
2020/12/24 09:20:25;;;;;;;1.42;1.13;;;;;;;7.29;75.45;99110.13;6247419;23;20024;-84
2020/12/24 09:22:57;;;;;;;1.67;1.35;;;;;;;7.30;75.30;99119.66;6221494;23;20020;-85
2020/12/24 09:25:41;;;;;;;2.03;1.35;;;;;;;7.28;75.21;99124.09;6223079;23;20339;-84
2020/12/24 09:28:19;;;;;;;1.50;1.35;;;;;;;7.29;75.12;99136.28;6222760;23;20070;-84
2020/12/24 09:30:45;;;;;;;2.97;1.67;;;;;;;7.32;75.89;99132.66;6222267;23;20027;-84
2020/12/24 09:33:12;;;;;;;1.38;1.27;;;;;;;7.30;75.63;99140.59;6247944;23;20020;-84
2020/12/24 09:35:38;;;;;;;1.90;1.60;;;;;;;7.30;76.01;99145.84;6221574;23;20024;-86
2020/12/24 09:38:04;;;;;;;1.92;1.65;;;;;;;7.29;76.21;99144.97;6220942;23;20027;-84
2020/12/24 09:40:31;;;;;;;1.80;1.70;;;;;;;7.30;76.08;99151.06;6221752;23;20462;-85
2020/12/24 09:42:57;;;;;;;1.92;1.50;;;;;;;7.31;76.03;99144.91;6221036;23;20518;-86
2020/12/24 09:45:23;;;;;;;2.13;1.30;;;;;;;7.30;75.89;99149.28;6221503;23;20074;-86
2020/12/24 09:47:50;;;;;;;3.20;1.65;;;;;;;7.29;76.04;99160.69;6221832;23;20023;-84
2020/12/24 09:50:16;;;;;;;2.65;1.30;;;;;;;7.32;75.76;99169.31;6247844;23;20024;-87
2020/12/24 09:52:42;;;;;;;2.83;1.40;;;;;;;7.31;75.94;99171.06;6221709;23;20024;-86
2020/12/24 09:55:08;;;;;;;2.25;1.45;;;;;;;7.31;75.96;99176.31;6247806;23;20024;-84
2020/12/24 09:57:35;;;;;;;1.88;1.42;;;;;;;7.31;75.87;99178.94;6221762;23;20083;-85
2020/12/24 10:00:05;;;;;;;5.30;1.73;;;;;;;7.28;75.79;99173.84;6247982;23;20020;-86
2020/12/24 10:02:32;;;;;;;1.30;1.20;;;;;;;7.28;75.54;99179.09;6221316;23;20051;-84
2020/12/24 10:04:58;;;;;;;2.78;1.50;;;;;;;7.27;75.60;99186.13;6220977;23;20486;-84
2020/12/24 10:07:25;;;;;;;2.50;2.20;;;;;;;7.25;75.55;99190.56;6222020;23;20027;-86
2020/12/24 10:09:54;;;;;;;3.38;2.35;;;;;;;7.24;75.56;99193.25;6222503;23;20023;-84
2020/12/24 10:12:24;;;;;;;3.72;2.90;;;;;;;7.21;75.47;99198.69;6221359;23;20020;-84
2020/12/24 10:14:51;;;;;;;4.60;3.63;;;;;;;7.19;75.78;99196.13;6221258;23;20451;-86
2020/12/24 10:17:18;;;;;;;5.47;4.10;;;;;;;7.17;75.58;99192.75;6247684;23;20362;-86
2020/12/24 10:19:44;;;;;;;6.72;5.35;;;;;;;7.16;75.93;99193.66;6221132;23;20096;-84
2020/12/24 10:22:13;;;;;;;8.02;6.10;;;;;;;7.13;75.91;99199.91;6221275;23;20020;-85
2020/12/24 10:24:50;;;;;;;7.82;6.55;;;;;;;7.14;75.99;99196.38;6223954;23;20076;-84
2020/12/24 10:27:16;;;;;;;7.03;6.28;;;;;;;7.14;76.06;99203.38;6221531;23;20455;-84
2020/12/24 10:29:43;;;;;;;8.68;6.05;;;;;;;7.16;76.46;99201.53;6221166;23;20059;-86
2020/12/24 10:32:09;;;;;;;6.43;5.80;;;;;;;7.17;76.42;99200.59;6247361;23;20528;-86
2020/12/24 10:34:35;;;;;;;8.15;6.15;;;;;;;7.18;76.22;99202.31;6249067;23;20035;-84
2020/12/24 10:37:02;;;;;;;5.65;4.78;;;;;;;7.21;76.00;99206.53;6220509;23;20074;-86
2020/12/24 10:39:30;;;;;;;4.50;3.90;;;;;;;7.20;76.17;99200.44;6221244;23;20020;-86
2020/12/24 10:41:56;;;;;;;4.07;3.58;;;;;;;7.22;76.31;99210.84;6220989;23;20016;-86
2020/12/24 10:44:23;;;;;;;7.45;3.45;;;;;;;7.23;76.39;99213.38;6220924;23;20024;-84
2020/12/24 10:46:57;;;;;;;3.85;2.95;;;;;;;7.22;76.24;99203.81;6248283;23;20350;-86
2020/12/24 10:49:25;;;;;;;5.03;3.20;;;;;;;7.27;76.77;99211.44;6220376;23;20016;-85
2020/12/24 10:51:51;;;;;;;3.75;3.10;;;;;;;7.28;76.48;99210.50;6248234;23;20354;-84
2020/12/24 10:54:18;;;;;;;3.85;3.00;;;;;;;7.30;76.57;99206.88;6247503;23;20087;-87
2020/12/24 10:56:50;;;;;;;3.65;2.75;;;;;;;7.32;76.24;99200.75;6220901;23;20343;-83
2020/12/24 10:59:17;;;;;;;3.42;2.60;;;;;;;7.35;76.58;99206.66;6247347;23;20151;-85
2020/12/24 11:01:50;;;;;;;4.00;2.72;;;;;;;7.37;76.28;99204.78;6220687;23;20320;-84
2020/12/24 11:04:20;;;;;;;4.38;2.72;;;;;;;7.39;76.44;99205.56;6220673;23;20481;-86
2020/12/24 11:06:49;;;;;;;4.63;2.33;;;;;;;7.45;76.94;99203.53;6221379;23;20030;-85
2020/12/24 11:09:16;;;;;;;4.88;2.70;;;;;;;7.47;76.41;99205.16;6247900;23;20020;-86
2020/12/24 11:11:43;;;;;;;5.43;2.88;;;;;;;7.50;76.65;99209.38;6247426;23;20060;-86
2020/12/24 11:14:10;;;;;;;5.95;3.17;;;;;;;7.52;76.54;99204.91;6246434;23;20481;-84
2020/12/24 11:16:36;;;;;;;4.22;3.03;;;;;;;7.54;76.55;99205.66;6221121;23;20024;-84
2020/12/24 11:19:03;;;;;;;3.58;2.65;;;;;;;7.56;76.71;99209.88;6220754;23;20343;-86
2020/12/24 11:21:32;;;;;;;4.30;2.63;;;;;;;7.58;76.47;99207.19;6220588;23;20020;-84
2020/12/24 11:24:08;;;;;;;5.15;3.05;;;;;;;7.60;76.36;99213.22;6221403;23;20374;-84
2020/12/24 11:26:36;;;;;;;4.53;2.78;;;;;;;7.61;76.67;99208.78;6219892;23;20031;-86
2020/12/24 11:29:04;;;;;;;4.90;3.28;;;;;;;7.63;76.37;99204.34;6220431;23;20027;-84
2020/12/24 11:31:32;;;;;;;6.00;3.58;;;;;;;7.63;76.56;99199.94;6247011;23;20020;-86
2020/12/24 11:33:59;;;;;;;7.05;3.40;;;;;;;7.65;76.42;99203.31;6247239;23;20105;-84
2020/12/24 11:36:26;;;;;;;7.13;3.92;;;;;;;7.67;76.62;99211.09;6220473;23;20020;-84
2020/12/24 11:38:54;;;;;;;7.63;3.50;;;;;;;7.69;76.42;99215.34;6247717;23;20020;-84
2020/12/24 11:41:26;;;;;;;7.53;3.83;;;;;;;7.67;76.06;99214.56;6220808;23;20023;-84
2020/12/24 11:43:55;;;;;;;3.33;2.30;;;;;;;7.72;76.65;99226.56;6247545;23;20521;-85
2020/12/24 11:46:31;;;;;;;5.75;3.53;;;;;;;7.71;75.73;99214.41;6221328;23;20020;-85
2020/12/24 11:51:37;;;;;;;5.57;3.13;;;;;;;7.73;76.19;99208.13;6215176;23;20027;-85
2020/12/24 11:54:09;;;;;;;4.63;2.95;;;;;;;7.74;76.19;99216.84;6190185;23;20026;-85
2020/12/24 11:57:09;;;;;;;5.68;3.03;;;;;;;7.69;75.77;99217.09;6217478;23;20020;-86
2020/12/24 11:59:48;;;;;;;3.78;3.03;;;;;;;7.71;75.86;99217.00;6216563;23;20059;-86
2020/12/24 12:03:12;;;;;;;7.95;3.40;;;;;;;7.71;75.67;99224.88;6193451;23;20467;-84
2020/12/24 12:06:05;;;;;;;6.75;3.78;;;;;;;7.73;75.84;99221.25;6105256;23;20050;-86
2020/12/24 12:09:28;;;;;;;8.00;3.70;;;;;;;7.72;75.64;99219.56;6186047;23;20043;-84
2020/12/24 12:12:38;;;;;;;9.32;3.97;;;;;;;7.73;76.03;99229.09;6067009;23;20170;-85
2020/12/24 12:15:47;;;;;;;6.75;3.72;;;;;;;7.76;75.84;99220.22;6134294;23;20070;-85
2020/12/24 12:21:44;;;;;;;7.47;3.67;;;;;;;7.77;75.80;99227.16;6095144;23;20024;-87
2020/12/24 12:24:42;;;;;;;8.68;3.50;;;;;;;7.79;75.89;99228.78;6217224;23;20162;-84
2020/12/24 12:31:39;;;;;;;9.52;3.38;;;;;;;7.80;75.35;99234.84;6215795;23;20108;-84
2020/12/24 12:38:41;;;;;;;7.90;3.15;;;;;;;7.84;75.90;99246.03;6218455;23;20019;-84
2020/12/24 12:41:19;;;;;;;5.38;3.53;;;;;;;7.85;76.48;99235.44;6192811;23;20028;-87
2020/12/24 12:44:28;;;;;;;7.68;3.22;;;;;;;7.88;75.89;99242.28;6194384;23;20398;-85
2020/12/24 12:48:22;;;;;;;5.90;3.10;;;;;;;7.89;75.83;99239.59;6114559;23;20017;-86
2020/12/24 12:58:19;;;;;;;6.55;2.70;;;;;;;7.98;76.40;99251.38;6182779;23;20029;-86
2020/12/24 13:00:51;;;;;;;8.85;3.08;;;;;;;7.95;76.12;99249.75;6217232;23;20052;-87
2020/12/24 13:03:22;;;;;;;7.75;3.30;;;;;;;7.96;76.43;99247.97;6190868;23;20033;-88